createdAt,value
2018-12-20T00:00:41.697Z,11.77
2018-12-20T00:03:28.837Z,10.13
2018-12-20T00:06:03.198Z,11.63
2018-12-20T00:08:37.728Z,11.40
2018-12-20T00:11:09.120Z,12.03
2018-12-20T00:13:38.856Z,12.53
2018-12-20T00:16:14.296Z,11.90
2018-12-20T00:18:46.895Z,10.90
2018-12-20T00:21:25.835Z,11.73
2018-12-20T00:24:00.573Z,11.40
2018-12-20T00:29:27.011Z,11.90
2018-12-20T00:32:03.733Z,11.40
2018-12-20T00:34:46.387Z,12.10
2018-12-20T00:37:15.403Z,10.50
2018-12-20T00:39:48.247Z,11.63
2018-12-20T00:42:21.047Z,12.13
2018-12-20T00:44:50.513Z,11.67
2018-12-20T00:47:23.325Z,11.67
2018-12-20T00:52:50.152Z,10.17
2018-12-20T00:55:31.489Z,10.00
2018-12-20T00:58:06.639Z,10.00
2018-12-20T01:00:36.547Z,10.10
2018-12-20T01:06:13.903Z,9.90
2018-12-20T01:08:55.284Z,9.30
2018-12-20T01:11:30.786Z,10.67
2018-12-20T01:14:01.356Z,10.13
2018-12-20T01:19:18.580Z,10.00
2018-12-20T01:21:47.679Z,9.20
2018-12-20T01:24:17.228Z,9.90
2018-12-20T01:26:52.440Z,10.80
2018-12-20T01:29:27.829Z,9.80
2018-12-20T01:31:57.565Z,9.77
2018-12-20T01:34:43.027Z,8.93
2018-12-20T01:37:12.193Z,9.30
2018-12-20T01:39:45.636Z,7.10
2018-12-20T01:42:28.633Z,7.17
2018-12-20T01:44:57.724Z,5.83
2018-12-20T01:47:31.296Z,6.40
2018-12-20T01:50:00.607Z,7.00
2018-12-20T01:52:37.433Z,6.47
2018-12-20T01:55:06.909Z,8.63
2018-12-20T02:00:39.777Z,9.03
2018-12-20T02:03:14.749Z,8.80
2018-12-20T02:05:44.232Z,8.70
2018-12-20T02:08:13.247Z,9.23
2018-12-20T02:10:42.405Z,8.40
2018-12-20T02:13:14.801Z,9.00
2018-12-20T02:15:44.132Z,9.67
2018-12-20T02:18:13.181Z,9.37
2018-12-20T02:20:42.478Z,9.50
2018-12-20T02:23:11.708Z,10.37
2018-12-20T02:25:40.904Z,10.33
2018-12-20T02:28:14.795Z,9.60
2018-12-20T02:30:43.931Z,9.90
2018-12-20T02:33:18.760Z,11.37
2018-12-20T02:35:48.098Z,10.77
2018-12-20T02:38:21.136Z,11.53
2018-12-20T02:40:50.394Z,11.67
2018-12-20T02:43:26.956Z,11.67
2018-12-20T02:45:59.684Z,12.67
2018-12-20T02:48:28.856Z,13.97
2018-12-20T02:51:02.188Z,13.53
2018-12-20T02:53:31.710Z,13.93
2018-12-20T02:58:56.637Z,13.43
2018-12-20T03:01:28.555Z,13.23
2018-12-20T03:04:00.312Z,12.90
2018-12-20T03:06:29.424Z,12.27
2018-12-20T03:08:58.575Z,14.00
2018-12-20T03:11:31.663Z,13.83
2018-12-20T03:14:04.281Z,13.67
2018-12-20T03:16:33.581Z,13.93
2018-12-20T03:19:17.554Z,14.63
2018-12-20T03:21:51.040Z,14.97
2018-12-20T03:24:38.364Z,14.37
2018-12-20T03:27:18.670Z,14.50
2018-12-20T03:29:51.574Z,14.90
2018-12-20T03:32:26.853Z,14.87
2018-12-20T03:34:59.353Z,14.90
2018-12-20T03:37:34.248Z,14.90
2018-12-20T03:40:07.892Z,14.67
2018-12-20T03:42:52.973Z,14.53
2018-12-20T03:45:29.250Z,14.33
2018-12-20T03:48:05.051Z,14.93
2018-12-20T03:50:39.854Z,14.60
2018-12-20T03:53:09.071Z,14.27
2018-12-20T03:55:39.526Z,15.23
2018-12-20T03:58:25.417Z,14.47
2018-12-20T04:01:00.449Z,15.10
2018-12-20T04:03:35.838Z,14.70
2018-12-20T04:06:19.269Z,14.70
2018-12-20T04:08:52.377Z,14.17
2018-12-20T04:11:22.955Z,14.57
2018-12-20T04:13:56.247Z,13.60
2018-12-20T04:16:33.605Z,9.83
2018-12-20T04:19:09.171Z,12.07
2018-12-20T04:21:38.460Z,8.73
2018-12-20T04:24:11.785Z,6.83
2018-12-20T04:26:46.411Z,6.07
2018-12-20T04:29:15.573Z,5.30
2018-12-20T04:31:48.475Z,5.00
2018-12-20T04:34:18.048Z,4.80
2018-12-20T04:36:51.235Z,4.73
2018-12-20T04:39:30.503Z,5.03
2018-12-20T04:41:59.862Z,4.73
2018-12-20T04:44:45.786Z,4.90
2018-12-20T04:47:25.469Z,5.87
2018-12-20T04:49:54.650Z,5.10
2018-12-20T04:52:29.778Z,5.70
2018-12-20T04:55:02.477Z,5.47
2018-12-20T04:57:31.768Z,5.60
2018-12-20T05:00:11.911Z,5.40
2018-12-20T05:02:44.779Z,5.13
2018-12-20T05:08:10.941Z,5.60
2018-12-20T05:10:40.092Z,5.10
2018-12-20T05:13:09.294Z,5.43
2018-12-20T05:15:57.023Z,5.27
2018-12-20T05:18:31.439Z,5.20
2018-12-20T05:21:01.702Z,5.50
2018-12-20T05:23:36.087Z,5.47
2018-12-20T05:26:10.935Z,5.27
2018-12-20T05:31:37.916Z,5.20
2018-12-20T05:34:19.098Z,5.67
2018-12-20T05:36:54.695Z,5.40
2018-12-20T05:39:29.888Z,5.10
2018-12-20T05:42:05.026Z,5.60
2018-12-20T05:44:37.331Z,5.30
2018-12-20T05:47:06.139Z,5.63
2018-12-20T05:49:35.474Z,6.10
2018-12-20T05:52:10.745Z,6.23
2018-12-20T05:54:39.843Z,6.30
2018-12-20T05:57:25.042Z,6.63
2018-12-20T06:03:10.737Z,5.80
2018-12-20T06:08:33.430Z,6.47
2018-12-20T06:11:09.406Z,6.40
2018-12-20T06:16:43.111Z,5.97
2018-12-20T06:19:16.593Z,5.97
2018-12-20T06:21:49.633Z,5.50
2018-12-20T06:24:30.768Z,6.13
2018-12-20T06:27:00.267Z,5.60
2018-12-20T06:29:29.483Z,5.23
2018-12-20T06:32:04.021Z,5.20
2018-12-20T06:34:36.503Z,4.97
2018-12-20T06:37:05.555Z,5.00
2018-12-20T06:39:40.579Z,4.90
2018-12-20T06:42:25.512Z,4.90
2018-12-20T06:45:10.418Z,4.83
2018-12-20T06:47:53.347Z,5.63
2018-12-20T06:50:26.344Z,5.10
2018-12-20T06:52:59.322Z,5.10
2018-12-20T06:55:30.516Z,4.80
2018-12-20T06:58:16.190Z,5.77
2018-12-20T07:00:53.575Z,5.40
2018-12-20T07:03:31.954Z,5.47
2018-12-20T07:06:07.250Z,5.10
2018-12-20T07:08:41.849Z,6.77
2018-12-20T07:11:17.567Z,5.10
2018-12-20T07:16:32.569Z,4.83
2018-12-20T07:19:02.304Z,5.50
2018-12-20T07:21:37.844Z,5.33
2018-12-20T07:24:07.572Z,5.40
2018-12-20T07:26:42.142Z,5.50
2018-12-20T07:29:14.293Z,5.57
2018-12-20T07:31:47.279Z,5.90
2018-12-20T07:34:16.332Z,5.77
2018-12-20T07:36:48.881Z,9.63
2018-12-20T07:39:18.247Z,12.33
2018-12-20T07:41:54.126Z,12.30
2018-12-20T07:44:29.372Z,11.33
2018-12-20T07:46:58.430Z,12.57
2018-12-20T07:49:37.007Z,11.20
2018-12-20T07:52:11.256Z,13.40
2018-12-20T07:54:53.981Z,13.20
2018-12-20T07:57:29.895Z,15.10
2018-12-20T08:03:04.303Z,14.93
2018-12-20T08:05:49.899Z,14.87
2018-12-20T08:08:23.235Z,15.93
2018-12-20T08:10:56.291Z,14.87
2018-12-20T08:16:36.468Z,13.40
2018-12-20T08:19:09.335Z,12.43
2018-12-20T08:21:47.222Z,12.30
2018-12-20T08:24:21.841Z,10.03
2018-12-20T08:26:54.655Z,9.63
2018-12-20T08:29:26.682Z,10.80
2018-12-20T08:32:02.817Z,13.27
2018-12-20T08:34:41.220Z,12.63
2018-12-20T08:37:10.261Z,10.70
2018-12-20T08:39:39.445Z,12.73
2018-12-20T08:42:16.717Z,12.20
2018-12-20T08:44:53.228Z,12.60
2018-12-20T08:47:28.047Z,14.20
2018-12-20T08:50:04.067Z,13.73
2018-12-20T08:52:38.742Z,14.53
2018-12-20T08:55:09.326Z,14.37
2018-12-20T08:57:42.604Z,14.20
2018-12-20T09:00:18.756Z,14.80
2018-12-20T09:02:52.391Z,15.60
2018-12-20T09:05:21.449Z,14.20
2018-12-20T09:07:57.317Z,13.77
2018-12-20T09:10:32.726Z,14.07
2018-12-20T09:13:14.132Z,14.00
2018-12-20T09:15:48.858Z,14.20
2018-12-20T09:18:24.365Z,13.20
2018-12-20T09:20:54.424Z,12.80
2018-12-20T09:23:30.574Z,12.27
2018-12-20T09:26:22.583Z,11.33
2018-12-20T09:28:55.094Z,12.27
2018-12-20T09:31:34.612Z,11.10
2018-12-20T09:34:08.092Z,11.43
2018-12-20T09:36:42.870Z,8.20
2018-12-20T09:39:20.040Z,8.73
2018-12-20T09:42:01.239Z,7.17
2018-12-20T09:44:38.218Z,6.80
2018-12-20T09:47:15.570Z,5.53
2018-12-20T09:49:45.169Z,3.60
2018-12-20T09:52:20.128Z,3.40
2018-12-20T09:55:09.037Z,4.30
2018-12-20T09:57:37.896Z,4.07
2018-12-20T10:00:09.765Z,3.70
2018-12-20T10:02:42.502Z,4.80
2018-12-20T10:05:11.825Z,4.10
2018-12-20T10:07:46.709Z,4.30
2018-12-20T10:10:22.009Z,3.77
2018-12-20T10:12:51.101Z,3.40
2018-12-20T10:15:21.445Z,4.00
2018-12-20T10:17:50.301Z,3.60
2018-12-20T10:20:28.465Z,3.30
2018-12-20T10:22:58.980Z,3.43
2018-12-20T10:25:30.926Z,3.53
2018-12-20T10:27:59.687Z,3.60
2018-12-20T10:30:38.229Z,3.23
2018-12-20T10:33:19.196Z,3.53
2018-12-20T10:38:37.940Z,3.50
2018-12-20T10:41:10.451Z,3.53
2018-12-20T10:43:41.094Z,3.27
2018-12-20T10:49:21.215Z,3.10
2018-12-20T10:51:56.829Z,3.17
2018-12-20T10:54:27.824Z,2.80
2018-12-20T10:57:10.954Z,3.30
2018-12-20T10:59:40.270Z,3.27
2018-12-20T11:02:14.321Z,2.73
2018-12-20T11:05:06.883Z,3.17
2018-12-20T11:07:41.345Z,3.70
2018-12-20T11:10:21.254Z,3.83
2018-12-20T11:12:56.573Z,3.50
2018-12-20T11:15:37.428Z,2.90
2018-12-20T11:18:11.370Z,3.40
2018-12-20T11:20:45.880Z,3.43
2018-12-20T11:23:19.291Z,2.80
2018-12-20T11:25:54.498Z,2.80
2018-12-20T11:28:23.591Z,2.80
2018-12-20T11:31:00.105Z,2.70
2018-12-20T11:33:33.113Z,2.57
2018-12-20T11:39:08.164Z,3.37
2018-12-20T11:41:42.136Z,2.67
2018-12-20T11:44:12.624Z,2.70
2018-12-20T11:49:33.650Z,2.67
2018-12-20T11:52:02.951Z,2.40
2018-12-20T11:54:43.540Z,2.97
2018-12-20T11:57:14.193Z,2.47
2018-12-20T11:59:43.237Z,2.47
2018-12-20T12:02:27.126Z,5.07
2018-12-20T12:05:00.003Z,3.10
2018-12-20T12:07:29.859Z,3.13
2018-12-20T12:10:05.674Z,3.27
2018-12-20T12:12:38.860Z,2.83
2018-12-20T12:15:14.747Z,2.47
2018-12-20T12:17:54.256Z,2.83
2018-12-20T12:20:37.153Z,13.37
2018-12-20T12:23:19.115Z,3.90
2018-12-20T12:25:51.311Z,3.07
2018-12-20T12:28:24.317Z,3.20
2018-12-20T12:30:53.460Z,2.80
2018-12-20T12:36:35.087Z,3.00
2018-12-20T12:39:16.535Z,2.77
2018-12-20T12:41:45.263Z,3.10
2018-12-20T12:44:18.104Z,2.87
2018-12-20T12:47:05.789Z,2.63
2018-12-20T12:49:34.677Z,3.33
2018-12-20T12:55:03.730Z,2.80
2018-12-20T12:57:38.963Z,2.30
2018-12-20T13:00:18.298Z,2.43
2018-12-20T13:02:47.387Z,3.00
2018-12-20T13:05:22.626Z,4.60
2018-12-20T13:08:01.914Z,2.53
2018-12-20T13:10:31.337Z,2.77
2018-12-20T13:13:10.777Z,2.97
2018-12-20T13:15:45.337Z,2.57
2018-12-20T13:18:21.487Z,2.80
2018-12-20T13:20:56.521Z,2.80
2018-12-20T13:23:25.806Z,8.70
2018-12-20T13:25:56.268Z,2.80
2018-12-20T13:28:27.376Z,2.43
2018-12-20T13:31:05.561Z,2.83
2018-12-20T13:33:41.222Z,2.53
2018-12-20T13:36:20.287Z,2.23
2018-12-20T13:39:01.547Z,2.57
2018-12-20T13:41:35.065Z,2.00
2018-12-20T13:44:10.685Z,2.27
2018-12-20T13:46:48.185Z,2.40
2018-12-20T13:49:22.796Z,2.30
2018-12-20T13:51:51.446Z,2.30
2018-12-20T13:54:20.809Z,2.50
2018-12-20T13:56:55.870Z,2.53
2018-12-20T13:59:37.323Z,7.07
2018-12-20T14:02:17.026Z,2.90
2018-12-20T14:04:46.337Z,2.67
2018-12-20T14:07:19.392Z,2.50
2018-12-20T14:09:49.870Z,2.20
2018-12-20T14:12:24.849Z,2.40
2018-12-20T14:14:58.844Z,2.20
2018-12-20T14:17:34.541Z,5.27
2018-12-20T14:20:08.411Z,3.23
2018-12-20T14:22:37.610Z,2.80
2018-12-20T14:25:07.126Z,2.77
2018-12-20T14:27:36.210Z,2.83
2018-12-20T14:30:18.619Z,2.73
2018-12-20T14:32:54.690Z,2.20
2018-12-20T14:35:29.317Z,1.93
2018-12-20T14:37:58.514Z,2.40
2018-12-20T14:40:40.036Z,1.90
2018-12-20T14:43:14.287Z,2.10
2018-12-20T14:45:53.403Z,2.00
2018-12-20T14:48:39.022Z,1.80
2018-12-20T14:51:02.166Z,1.93
2018-12-20T14:53:31.432Z,1.80
2018-12-20T14:56:03.945Z,2.10
2018-12-20T14:58:38.896Z,1.73
2018-12-20T15:01:11.402Z,1.60
2018-12-20T15:03:43.452Z,1.77
2018-12-20T15:06:12.183Z,2.33
2018-12-20T15:08:42.528Z,1.60
2018-12-20T15:11:15.500Z,1.70
2018-12-20T15:13:44.661Z,1.83
2018-12-20T15:16:23.547Z,1.67
2018-12-20T15:19:00.419Z,1.90
2018-12-20T15:21:35.480Z,1.30
2018-12-20T15:24:05.043Z,1.80
2018-12-20T15:26:35.855Z,1.60
2018-12-20T15:29:08.461Z,1.53
2018-12-20T15:31:42.669Z,2.10
2018-12-20T15:34:19.158Z,1.50
2018-12-20T15:36:48.789Z,1.70
2018-12-20T15:39:18.674Z,1.53
2018-12-20T15:41:55.493Z,1.37
2018-12-20T15:44:40.345Z,4.87
2018-12-20T15:47:16.001Z,1.50
2018-12-20T15:49:50.626Z,1.63
2018-12-20T15:52:29.144Z,1.60
2018-12-20T15:55:08.828Z,1.57
2018-12-20T15:57:45.150Z,1.70
2018-12-20T16:00:18.162Z,1.20
2018-12-20T16:03:05.502Z,1.30
2018-12-20T16:05:46.858Z,1.70
2018-12-20T16:08:23.175Z,1.37
2018-12-20T16:11:04.321Z,2.70
2018-12-20T16:13:39.261Z,1.30
2018-12-20T16:16:13.457Z,1.90
2018-12-20T16:19:04.950Z,1.67
2018-12-20T16:21:32.449Z,1.73
2018-12-20T16:24:06.890Z,1.70
2018-12-20T16:29:33.127Z,2.20
2018-12-20T16:32:11.376Z,1.90
2018-12-20T16:34:49.700Z,1.70
2018-12-20T16:37:19.570Z,1.60
2018-12-20T16:39:48.726Z,1.90
2018-12-20T16:42:28.224Z,2.27
2018-12-20T16:44:57.202Z,1.70
2018-12-20T16:47:31.509Z,1.43
2018-12-20T16:50:06.406Z,1.67
2018-12-20T16:52:35.686Z,1.87
2018-12-20T16:55:05.316Z,1.67
2018-12-20T16:57:40.858Z,1.60
2018-12-20T17:00:12.169Z,1.73
2018-12-20T17:02:40.926Z,2.07
2018-12-20T17:05:13.503Z,2.17
2018-12-20T17:07:49.875Z,1.57
2018-12-20T17:10:23.148Z,2.00
2018-12-20T17:12:59.872Z,1.73
2018-12-20T17:15:29.723Z,2.27
2018-12-20T17:17:58.791Z,2.70
2018-12-20T17:20:28.328Z,1.90
2018-12-20T17:23:00.947Z,2.03
2018-12-20T17:25:39.192Z,1.80
2018-12-20T17:28:27.393Z,2.07
2018-12-20T17:31:08.461Z,1.80
2018-12-20T17:33:53.527Z,2.00
2018-12-20T17:36:34.648Z,1.87
2018-12-20T17:42:08.253Z,2.30
2018-12-20T17:44:38.629Z,2.10
2018-12-20T17:47:23.119Z,2.00
2018-12-20T17:49:57.822Z,2.10
2018-12-20T17:52:32.222Z,2.03
2018-12-20T17:55:12.675Z,2.03
2018-12-20T17:57:47.344Z,2.13
2018-12-20T18:00:21.967Z,1.60
2018-12-20T18:02:51.684Z,2.00
2018-12-20T18:05:26.059Z,1.73
2018-12-20T18:07:58.072Z,1.90
2018-12-20T18:10:31.482Z,1.77
2018-12-20T18:13:01.020Z,2.00
2018-12-20T18:15:38.118Z,1.60
2018-12-20T18:18:12.506Z,1.60
2018-12-20T18:20:41.796Z,1.30
2018-12-20T18:23:10.927Z,1.70
2018-12-20T18:25:46.587Z,2.90
2018-12-20T18:28:15.611Z,1.70
2018-12-20T18:30:44.669Z,1.70
2018-12-20T18:33:15.185Z,1.87
2018-12-20T18:35:44.825Z,2.10
2018-12-20T18:38:13.683Z,1.73
2018-12-20T18:40:42.815Z,2.07
2018-12-20T18:43:14.940Z,1.70
2018-12-20T18:45:45.906Z,1.70
2018-12-20T18:48:22.666Z,1.97
2018-12-20T18:50:58.663Z,1.57
2018-12-20T18:53:33.693Z,1.77
2018-12-20T18:56:06.636Z,2.30
2018-12-20T18:58:44.365Z,1.70
2018-12-20T19:01:26.795Z,1.50
2018-12-20T19:04:07.082Z,1.77
2018-12-20T19:06:36.655Z,1.60
2018-12-20T19:09:20.142Z,2.33
2018-12-20T19:11:56.722Z,1.57
2018-12-20T19:14:33.454Z,1.33
2018-12-20T19:17:07.591Z,1.17
2018-12-20T19:19:56.268Z,1.30
2018-12-20T19:22:38.397Z,1.30
2018-12-20T19:25:07.395Z,1.83
2018-12-20T19:27:51.243Z,1.57
2018-12-20T19:30:26.720Z,1.93
2018-12-20T19:41:44.726Z,1.80
2018-12-20T19:44:13.501Z,1.50
2018-12-20T19:46:52.059Z,2.80
2018-12-20T19:49:21.090Z,1.20
2018-12-20T19:57:43.029Z,1.53
2018-12-20T20:11:16.862Z,1.20
2018-12-20T20:14:03.630Z,1.67
2018-12-20T20:16:39.967Z,4.20
2018-12-20T20:19:14.745Z,1.63
2018-12-20T20:27:37.873Z,3.20
2018-12-20T20:30:17.931Z,2.30
2018-12-20T20:32:55.975Z,2.60
2018-12-20T20:35:26.972Z,2.30
2018-12-20T20:41:12.972Z,2.20
2018-12-20T20:43:55.516Z,1.80
2018-12-20T20:46:31.732Z,1.70
2018-12-20T20:49:06.082Z,1.80
2018-12-20T20:51:35.334Z,1.60
2018-12-20T20:54:04.504Z,1.60
2018-12-20T20:56:40.180Z,2.30
2018-12-20T20:59:15.178Z,1.60
2018-12-20T21:01:44.192Z,2.00
2018-12-20T21:04:16.732Z,1.73
2018-12-20T21:06:57.907Z,1.80
2018-12-20T21:09:28.014Z,2.10
2018-12-20T21:12:04.119Z,1.70
2018-12-20T21:14:39.822Z,1.90
2018-12-20T21:17:16.705Z,2.00
2018-12-20T21:19:55.478Z,2.07
2018-12-20T21:22:32.726Z,2.30
2018-12-20T21:25:08.314Z,3.20
2018-12-20T21:27:43.310Z,4.87
2018-12-20T21:30:16.963Z,2.50
2018-12-20T21:32:58.939Z,2.80
2018-12-20T21:35:28.033Z,3.20
2018-12-20T21:37:57.608Z,2.60
2018-12-20T21:40:33.237Z,1.90
2018-12-20T21:43:02.369Z,2.00
2018-12-20T21:45:41.202Z,2.30
2018-12-20T21:48:17.988Z,4.93
2018-12-20T21:50:52.858Z,3.67
2018-12-20T21:53:21.957Z,6.03
2018-12-20T21:55:57.504Z,5.57
2018-12-20T21:58:35.677Z,4.33
2018-12-20T22:01:10.489Z,2.00
2018-12-20T22:03:46.159Z,2.20
2018-12-20T22:06:21.294Z,2.07
2018-12-20T22:08:57.355Z,2.17
2018-12-20T22:11:34.963Z,2.03
2018-12-20T22:14:12.731Z,2.17
2018-12-20T22:16:47.498Z,2.57
2018-12-20T22:19:25.711Z,2.50
2018-12-20T22:22:01.512Z,2.03
2018-12-20T22:24:30.601Z,2.00
2018-12-20T22:27:06.043Z,1.60
2018-12-20T22:29:36.691Z,2.80
2018-12-20T22:32:18.785Z,2.87
2018-12-20T22:34:53.468Z,3.03
2018-12-20T22:37:30.592Z,3.50
2018-12-20T22:40:01.258Z,3.33
2018-12-20T22:42:50.198Z,2.80
2018-12-20T22:45:30.046Z,3.50
2018-12-20T22:48:10.764Z,3.40
2018-12-20T22:50:40.187Z,3.50
2018-12-20T22:56:07.363Z,2.60
2018-12-20T22:58:40.318Z,3.10
2018-12-20T23:01:16.784Z,2.37
2018-12-20T23:03:51.248Z,2.00
2018-12-20T23:06:20.981Z,2.10
2018-12-20T23:08:50.121Z,2.40
2018-12-20T23:11:19.413Z,2.20
2018-12-20T23:13:48.988Z,2.10
2018-12-20T23:16:18.063Z,2.10
2018-12-20T23:18:47.441Z,2.20
2018-12-20T23:21:30.601Z,2.10
2018-12-20T23:24:09.165Z,1.60
2018-12-20T23:26:45.910Z,2.20
2018-12-20T23:29:20.843Z,1.83
2018-12-20T23:32:02.727Z,1.83
2018-12-20T23:34:35.244Z,2.03
2018-12-20T23:37:08.280Z,2.20
2018-12-20T23:39:37.421Z,2.07
2018-12-20T23:42:10.257Z,2.30
2018-12-20T23:44:53.130Z,1.97
2018-12-20T23:47:28.594Z,2.20
2018-12-20T23:50:03.847Z,2.10
2018-12-20T23:52:38.727Z,1.80
2018-12-20T23:55:10.048Z,2.03
2018-12-20T23:57:44.645Z,2.00
